createdAt,value
2019-02-20T00:00:39.862Z,50.30
2019-02-20T00:03:09.783Z,48.32
2019-02-20T00:05:39.428Z,46.15
2019-02-20T00:08:09.124Z,43.35
2019-02-20T00:10:39.133Z,42.63
2019-02-20T00:13:08.988Z,40.17
2019-02-20T00:15:38.909Z,33.29
2019-02-20T00:18:08.753Z,17.95
2019-02-20T00:20:38.530Z,14.34
2019-02-20T00:23:08.452Z,10.95
2019-02-20T00:25:38.249Z,9.55
2019-02-20T00:28:09.306Z,8.42
2019-02-20T00:30:39.120Z,7.90
2019-02-20T00:33:08.812Z,6.56
2019-02-20T00:35:38.781Z,6.23
2019-02-20T00:38:08.779Z,6.28
2019-02-20T00:40:38.612Z,6.14
2019-02-20T00:43:08.504Z,6.01
2019-02-20T00:45:50.216Z,5.74
2019-02-20T00:48:41.916Z,3.56
2019-02-20T00:51:23.021Z,0.81
2019-02-20T00:53:56.497Z,0.00
2019-02-20T00:56:26.194Z,0.00
2019-02-20T00:58:56.140Z,0.00
2019-02-20T01:01:26.085Z,0.00
2019-02-20T01:03:55.825Z,0.00
2019-02-20T01:06:25.567Z,0.00
2019-02-20T01:08:55.445Z,0.00
2019-02-20T01:11:25.507Z,0.00
2019-02-20T01:13:55.585Z,0.00
2019-02-20T01:16:25.526Z,0.00
2019-02-20T01:18:55.338Z,0.00
2019-02-20T01:21:25.166Z,0.00
2019-02-20T01:23:55.113Z,0.00
2019-02-20T01:26:25.124Z,0.00
2019-02-20T01:28:54.803Z,0.00
2019-02-20T01:31:25.212Z,0.00
2019-02-20T01:33:54.933Z,0.00
2019-02-20T01:36:24.651Z,0.00
2019-02-20T01:38:56.286Z,0.00
2019-02-20T01:41:26.141Z,0.00
2019-02-20T01:43:56.161Z,0.00
2019-02-20T01:46:26.040Z,0.00
2019-02-20T01:48:55.671Z,0.00
2019-02-20T01:51:25.495Z,0.00
2019-02-20T01:53:55.362Z,0.00
2019-02-20T01:56:25.349Z,0.00
2019-02-20T01:58:55.131Z,0.00
2019-02-20T02:01:24.885Z,0.00
2019-02-20T02:03:54.760Z,0.00
2019-02-20T02:06:24.695Z,0.00
2019-02-20T02:08:54.600Z,0.00
2019-02-20T02:11:24.413Z,0.00
2019-02-20T02:13:54.331Z,0.00
2019-02-20T02:16:24.235Z,0.00
2019-02-20T02:18:54.573Z,0.00
2019-02-20T02:21:24.324Z,0.00
2019-02-20T02:23:54.004Z,0.00
2019-02-20T02:26:23.825Z,0.00
2019-02-20T02:28:53.775Z,0.00
2019-02-20T02:31:23.544Z,0.00
2019-02-20T02:33:53.580Z,0.00
2019-02-20T02:36:23.519Z,0.00
2019-02-20T02:38:53.396Z,0.00
2019-02-20T02:41:23.424Z,0.00
2019-02-20T02:43:53.608Z,0.00
2019-02-20T02:46:23.360Z,0.00
2019-02-20T02:48:54.432Z,0.00
2019-02-20T02:51:25.344Z,0.00
2019-02-20T02:53:55.141Z,0.00
2019-02-20T02:56:24.968Z,0.00
2019-02-20T02:58:54.817Z,0.00
2019-02-20T03:01:24.592Z,0.00
2019-02-20T03:03:54.391Z,0.00
2019-02-20T03:06:24.568Z,0.00
2019-02-20T03:08:54.433Z,0.00
2019-02-20T03:11:24.249Z,0.00
2019-02-20T03:13:55.332Z,0.00
2019-02-20T03:16:25.136Z,0.00
2019-02-20T03:18:55.129Z,0.00
2019-02-20T03:21:25.102Z,0.00
2019-02-20T03:23:54.925Z,0.00
2019-02-20T03:26:24.577Z,0.00
2019-02-20T03:28:54.334Z,0.00
2019-02-20T03:31:24.214Z,0.00
2019-02-20T03:33:54.030Z,0.00
2019-02-20T03:36:23.888Z,0.00
2019-02-20T03:38:53.598Z,0.00
2019-02-20T03:41:23.475Z,0.00
2019-02-20T03:43:53.188Z,0.00
2019-02-20T03:46:22.916Z,0.00
2019-02-20T03:48:52.601Z,0.00
2019-02-20T03:51:22.376Z,0.00
2019-02-20T03:53:52.511Z,0.00
2019-02-20T03:56:22.419Z,0.00
2019-02-20T03:58:52.058Z,0.00
2019-02-20T04:01:21.771Z,0.00
2019-02-20T04:03:51.548Z,0.00
2019-02-20T04:06:21.292Z,0.00
2019-02-20T04:08:51.251Z,0.00
2019-02-20T04:11:21.228Z,0.00
2019-02-20T04:13:50.954Z,0.00
2019-02-20T04:16:20.897Z,0.00
2019-02-20T04:18:50.793Z,0.00
2019-02-20T04:21:20.590Z,0.00
2019-02-20T04:23:50.376Z,0.00
2019-02-20T04:26:20.127Z,0.00
2019-02-20T04:28:49.956Z,0.00
2019-02-20T04:31:19.917Z,0.00
2019-02-20T04:33:49.710Z,0.00
2019-02-20T04:36:19.376Z,0.00
2019-02-20T04:38:49.286Z,0.00
2019-02-20T04:41:19.262Z,0.00
2019-02-20T04:43:49.026Z,0.00
2019-02-20T04:46:18.827Z,0.00
2019-02-20T04:48:48.702Z,0.00
2019-02-20T04:51:18.658Z,0.00
2019-02-20T04:53:48.480Z,0.00
2019-02-20T04:56:19.477Z,0.00
2019-02-20T04:58:52.683Z,0.00
2019-02-20T05:01:22.851Z,0.00
2019-02-20T05:03:52.577Z,0.00
2019-02-20T05:06:22.466Z,0.00
2019-02-20T05:08:52.445Z,0.00
2019-02-20T05:11:22.316Z,0.00
2019-02-20T05:13:52.165Z,0.00
2019-02-20T05:16:22.162Z,0.00
2019-02-20T05:18:52.066Z,0.00
2019-02-20T05:21:21.871Z,0.00
2019-02-20T05:23:51.681Z,0.00
2019-02-20T05:26:21.527Z,0.00
2019-02-20T05:28:51.487Z,0.00
2019-02-20T05:31:21.309Z,0.00
2019-02-20T05:33:51.484Z,0.00
2019-02-20T05:36:21.441Z,0.00
2019-02-20T05:38:51.083Z,0.00
2019-02-20T05:41:20.998Z,0.00
2019-02-20T05:43:51.003Z,0.00
2019-02-20T05:46:20.833Z,0.00
2019-02-20T05:48:50.852Z,0.00
2019-02-20T05:51:20.626Z,0.00
2019-02-20T05:53:50.499Z,0.00
2019-02-20T05:56:20.219Z,0.00
2019-02-20T05:58:50.043Z,0.00
2019-02-20T06:01:19.949Z,0.00
2019-02-20T06:03:49.769Z,0.00
2019-02-20T06:06:19.596Z,0.00
2019-02-20T06:08:49.376Z,0.00
2019-02-20T06:11:19.095Z,0.00
2019-02-20T06:13:48.951Z,0.00
2019-02-20T06:16:18.825Z,0.00
2019-02-20T06:18:48.723Z,0.00
2019-02-20T06:21:19.901Z,0.00
2019-02-20T06:23:49.680Z,0.00
2019-02-20T06:26:19.495Z,0.00
2019-02-20T06:28:49.455Z,0.00
2019-02-20T06:31:19.225Z,0.00
2019-02-20T06:33:49.158Z,0.00
2019-02-20T06:36:18.931Z,0.00
2019-02-20T06:38:48.586Z,0.00
2019-02-20T06:41:18.396Z,0.00
2019-02-20T06:43:48.232Z,0.00
2019-02-20T06:46:18.025Z,0.00
2019-02-20T06:48:47.836Z,0.00
2019-02-20T06:51:17.630Z,0.00
2019-02-20T06:53:47.264Z,0.00
2019-02-20T06:56:17.072Z,0.00
2019-02-20T06:58:46.829Z,0.00
2019-02-20T07:01:16.879Z,0.00
2019-02-20T07:03:46.798Z,0.00
2019-02-20T07:06:43.395Z,0.00
2019-02-20T07:09:40.217Z,0.00
2019-02-20T07:12:27.690Z,0.00
2019-02-20T07:15:28.689Z,0.00
2019-02-20T07:18:37.776Z,0.00
2019-02-20T07:21:57.304Z,0.00
2019-02-20T07:25:13.234Z,0.00
2019-02-20T07:28:22.358Z,6.85
2019-02-20T07:30:52.087Z,26.62
2019-02-20T07:33:23.092Z,53.88
2019-02-20T07:35:52.899Z,70.74
2019-02-20T07:38:22.606Z,90.61
2019-02-20T07:40:52.491Z,97.15
2019-02-20T07:43:22.333Z,99.84
2019-02-20T07:45:52.260Z,99.98
2019-02-20T07:48:22.131Z,99.17
2019-02-20T07:50:51.798Z,100.00
2019-02-20T07:53:21.488Z,100.00
2019-02-20T07:55:51.247Z,100.00
2019-02-20T07:58:21.129Z,100.00
2019-02-20T08:00:50.918Z,100.00
2019-02-20T08:03:20.750Z,100.00
2019-02-20T08:05:50.652Z,100.00
2019-02-20T08:08:22.002Z,100.00
2019-02-20T08:10:51.847Z,100.00
2019-02-20T08:13:21.560Z,99.96
2019-02-20T08:15:51.488Z,99.67
2019-02-20T08:18:21.493Z,99.18
2019-02-20T08:20:51.354Z,99.10
2019-02-20T08:23:21.260Z,97.71
2019-02-20T08:25:51.127Z,96.87
2019-02-20T08:28:21.033Z,96.25
2019-02-20T08:30:51.000Z,95.08
2019-02-20T08:33:20.766Z,94.06
2019-02-20T08:35:51.960Z,93.51
2019-02-20T08:38:21.726Z,92.40
2019-02-20T08:40:51.564Z,91.57
2019-02-20T08:43:21.406Z,91.18
2019-02-20T08:45:51.256Z,90.74
2019-02-20T08:48:21.103Z,90.45
2019-02-20T08:50:50.953Z,89.45
2019-02-20T08:53:21.099Z,87.69
2019-02-20T08:55:50.935Z,86.55
2019-02-20T08:58:21.153Z,86.64
2019-02-20T09:00:52.137Z,86.46
2019-02-20T09:03:22.119Z,85.21
2019-02-20T09:05:51.928Z,84.38
2019-02-20T09:08:21.688Z,83.06
2019-02-20T09:10:51.462Z,80.62
2019-02-20T09:13:21.411Z,80.03
2019-02-20T09:15:51.474Z,79.81
2019-02-20T09:18:21.299Z,78.94
2019-02-20T09:20:52.511Z,77.93
2019-02-20T09:23:23.426Z,75.76
2019-02-20T09:25:53.227Z,76.01
2019-02-20T09:28:23.197Z,73.05
2019-02-20T09:30:53.021Z,72.08
2019-02-20T09:33:22.754Z,72.82
2019-02-20T09:35:52.465Z,71.99
2019-02-20T09:38:22.141Z,72.12
2019-02-20T09:40:51.884Z,71.22
2019-02-20T09:43:21.666Z,70.19
2019-02-20T09:45:51.647Z,70.02
2019-02-20T09:48:21.679Z,69.33
2019-02-20T09:50:52.821Z,68.52
2019-02-20T09:53:22.597Z,67.85
2019-02-20T09:55:52.322Z,66.05
2019-02-20T09:58:22.240Z,65.81
2019-02-20T10:00:52.052Z,65.65
2019-02-20T10:03:22.069Z,65.72
2019-02-20T10:05:51.918Z,64.94
2019-02-20T10:08:21.815Z,64.40
2019-02-20T10:10:51.632Z,63.88
2019-02-20T10:13:21.499Z,61.30
2019-02-20T10:15:51.421Z,59.56
2019-02-20T10:18:21.283Z,60.16
2019-02-20T10:20:51.263Z,59.57
2019-02-20T10:23:21.018Z,58.68
2019-02-20T10:26:00.538Z,55.90
2019-02-20T10:28:23.639Z,54.30
2019-02-20T10:30:53.418Z,54.07
2019-02-20T10:33:23.244Z,54.41
2019-02-20T10:35:53.076Z,54.55
2019-02-20T10:38:22.858Z,53.96
2019-02-20T10:40:52.783Z,53.70
2019-02-20T10:43:22.758Z,53.15
2019-02-20T10:45:52.594Z,53.17
2019-02-20T10:48:23.765Z,52.85
2019-02-20T10:50:53.556Z,52.99
2019-02-20T10:53:23.558Z,53.41
2019-02-20T10:55:53.338Z,53.03
2019-02-20T10:58:23.102Z,52.65
2019-02-20T11:00:52.954Z,52.72
2019-02-20T11:03:22.774Z,52.60
2019-02-20T11:05:52.660Z,52.20
2019-02-20T11:08:23.735Z,51.38
2019-02-20T11:10:53.413Z,51.68
2019-02-20T11:13:23.207Z,51.04
2019-02-20T11:15:53.050Z,50.60
2019-02-20T11:18:22.837Z,50.60
2019-02-20T11:20:52.778Z,49.31
2019-02-20T11:23:22.634Z,49.13
2019-02-20T11:25:52.608Z,49.72
2019-02-20T11:28:26.982Z,49.66
2019-02-20T11:30:56.824Z,47.57
2019-02-20T11:33:26.741Z,46.59
2019-02-20T11:35:56.658Z,47.73
2019-02-20T11:38:26.705Z,47.86
2019-02-20T11:40:56.596Z,48.01
2019-02-20T11:43:26.414Z,47.38
2019-02-20T11:45:56.372Z,47.68
2019-02-20T11:48:26.248Z,46.97
2019-02-20T11:50:55.964Z,46.88
2019-02-20T11:53:25.817Z,46.96
2019-02-20T11:55:55.614Z,46.92
2019-02-20T11:58:25.496Z,45.34
2019-02-20T12:00:55.345Z,45.63
2019-02-20T12:03:25.132Z,45.70
2019-02-20T12:05:54.956Z,45.32
2019-02-20T12:08:24.842Z,44.70
2019-02-20T12:10:54.961Z,44.83
2019-02-20T12:13:24.788Z,43.86
2019-02-20T12:15:54.664Z,43.35
2019-02-20T12:18:24.740Z,42.24
2019-02-20T12:20:54.592Z,43.68
2019-02-20T12:23:24.307Z,43.29
2019-02-20T12:25:54.415Z,41.18
2019-02-20T12:28:24.359Z,42.18
2019-02-20T12:30:54.208Z,42.30
2019-02-20T12:33:24.151Z,42.84
2019-02-20T12:35:54.088Z,41.46
2019-02-20T12:38:23.958Z,40.91
2019-02-20T12:40:53.669Z,40.44
2019-02-20T12:43:23.451Z,40.58
2019-02-20T12:45:53.322Z,40.33
2019-02-20T12:48:23.241Z,40.44
2019-02-20T12:50:53.152Z,39.86
2019-02-20T12:53:23.066Z,39.72
2019-02-20T12:55:52.966Z,40.29
2019-02-20T12:58:22.936Z,38.50
2019-02-20T13:00:52.809Z,38.92
2019-02-20T13:03:22.715Z,39.95
2019-02-20T13:05:53.797Z,40.26
2019-02-20T13:08:25.314Z,39.91
2019-02-20T13:10:56.609Z,39.96
2019-02-20T13:13:26.634Z,39.42
2019-02-20T13:15:56.302Z,39.78
2019-02-20T13:18:26.128Z,39.37
2019-02-20T13:20:56.091Z,39.25
2019-02-20T13:23:25.968Z,39.27
2019-02-20T13:25:55.877Z,39.24
2019-02-20T13:28:25.966Z,40.01
2019-02-20T13:30:55.695Z,40.03
2019-02-20T13:33:25.607Z,40.74
2019-02-20T13:35:56.474Z,40.75
2019-02-20T13:38:26.279Z,40.83
2019-02-20T13:40:56.176Z,40.37
2019-02-20T13:43:26.361Z,40.59
2019-02-20T13:45:56.010Z,40.26
2019-02-20T13:48:25.756Z,40.25
2019-02-20T13:50:55.718Z,39.96
2019-02-20T13:53:25.565Z,39.78
2019-02-20T13:55:55.809Z,39.57
2019-02-20T13:58:25.944Z,38.72
2019-02-20T14:00:55.735Z,37.42
2019-02-20T14:03:25.754Z,36.88
2019-02-20T14:05:55.563Z,36.40
2019-02-20T14:08:25.260Z,35.34
2019-02-20T14:10:55.131Z,35.17
2019-02-20T14:13:25.298Z,34.68
2019-02-20T14:15:55.221Z,34.37
2019-02-20T14:18:25.075Z,34.57
2019-02-20T14:20:54.747Z,33.46
2019-02-20T14:23:24.607Z,33.65
2019-02-20T14:25:54.472Z,32.81
2019-02-20T14:28:24.735Z,33.16
2019-02-20T14:30:54.514Z,32.85
2019-02-20T14:33:24.427Z,33.11
2019-02-20T14:35:54.419Z,34.14
2019-02-20T14:38:24.261Z,33.48
2019-02-20T14:40:54.184Z,33.35
2019-02-20T14:43:24.337Z,34.05
2019-02-20T14:45:54.209Z,34.07
2019-02-20T14:48:23.830Z,33.40
2019-02-20T14:50:53.684Z,33.92
2019-02-20T14:53:23.550Z,33.97
2019-02-20T14:55:53.170Z,34.07
2019-02-20T14:58:23.148Z,34.19
2019-02-20T15:00:53.019Z,33.79
2019-02-20T15:03:22.846Z,34.29
2019-02-20T15:05:52.796Z,34.55
2019-02-20T15:08:22.774Z,34.53
2019-02-20T15:10:52.647Z,34.71
2019-02-20T15:13:22.590Z,34.42
2019-02-20T15:15:52.530Z,34.38
2019-02-20T15:18:22.405Z,34.41
2019-02-20T15:20:52.254Z,35.06
2019-02-20T15:23:22.254Z,35.50
2019-02-20T15:25:52.232Z,35.61
2019-02-20T15:28:22.288Z,35.73
2019-02-20T15:30:52.042Z,36.14
2019-02-20T15:33:23.930Z,36.94
2019-02-20T15:35:53.470Z,37.53
2019-02-20T15:38:23.221Z,38.07
2019-02-20T15:40:53.120Z,40.83
2019-02-20T15:43:25.491Z,46.35
2019-02-20T15:45:55.247Z,54.74
2019-02-20T15:48:25.123Z,61.32
2019-02-20T15:50:54.923Z,63.83
2019-02-20T15:53:24.687Z,66.07
2019-02-20T15:55:54.489Z,67.24
2019-02-20T15:58:24.158Z,69.04
2019-02-20T16:00:54.137Z,71.97
2019-02-20T16:03:23.790Z,73.77
2019-02-20T16:05:53.721Z,75.63
2019-02-20T16:08:23.652Z,77.30
2019-02-20T16:10:53.438Z,77.36
2019-02-20T16:13:23.535Z,77.92
2019-02-20T16:15:53.290Z,79.32
2019-02-20T16:18:23.370Z,79.66
2019-02-20T16:20:53.280Z,79.31
2019-02-20T16:23:23.019Z,79.74
2019-02-20T16:25:52.949Z,78.90
2019-02-20T16:28:25.395Z,77.19
2019-02-20T16:30:54.427Z,74.65
2019-02-20T16:33:24.395Z,74.46
2019-02-20T16:35:54.268Z,73.99
2019-02-20T16:38:24.176Z,74.95
2019-02-20T16:40:54.245Z,76.54
2019-02-20T16:43:24.091Z,80.12
2019-02-20T16:45:55.272Z,81.38
2019-02-20T16:48:24.939Z,81.49
2019-02-20T16:50:54.884Z,83.48
2019-02-20T16:53:27.244Z,83.83
2019-02-20T16:55:57.374Z,84.20
2019-02-20T16:58:27.178Z,85.12
2019-02-20T17:00:57.004Z,85.71
2019-02-20T17:03:28.191Z,85.47
2019-02-20T17:05:57.964Z,85.00
2019-02-20T17:08:27.661Z,84.42
2019-02-20T17:10:57.917Z,85.46
2019-02-20T17:13:27.743Z,85.90
2019-02-20T17:15:57.519Z,85.42
2019-02-20T17:18:27.447Z,84.78
2019-02-20T17:20:57.409Z,84.45
2019-02-20T17:23:27.162Z,85.12
2019-02-20T17:25:57.436Z,85.15
2019-02-20T17:28:27.203Z,84.68
2019-02-20T17:30:57.135Z,85.20
2019-02-20T17:33:27.031Z,85.44
2019-02-20T17:35:56.767Z,86.06
2019-02-20T17:38:26.556Z,87.09
2019-02-20T17:40:56.442Z,87.85
2019-02-20T17:43:26.296Z,87.47
2019-02-20T17:45:56.108Z,87.37
2019-02-20T17:48:27.062Z,87.51
2019-02-20T17:50:56.855Z,86.85
2019-02-20T17:53:26.862Z,86.08
2019-02-20T17:55:56.738Z,87.38
2019-02-20T17:58:26.538Z,86.61
2019-02-20T18:00:56.470Z,85.90
2019-02-20T18:03:26.416Z,85.33
2019-02-20T18:05:56.068Z,84.81
2019-02-20T18:08:26.096Z,84.36
2019-02-20T18:10:56.042Z,84.36
2019-02-20T18:13:25.714Z,84.71
2019-02-20T18:15:55.631Z,84.00
2019-02-20T18:18:25.608Z,83.33
2019-02-20T18:20:55.574Z,82.35
2019-02-20T18:23:25.484Z,82.28
2019-02-20T18:25:55.245Z,82.51
2019-02-20T18:28:25.092Z,82.52
2019-02-20T18:30:55.085Z,82.68
2019-02-20T18:33:24.838Z,82.56
2019-02-20T18:35:54.639Z,82.02
2019-02-20T18:38:25.724Z,82.37
2019-02-20T18:40:55.884Z,82.54
2019-02-20T18:43:25.646Z,82.37
2019-02-20T18:45:55.397Z,82.79
2019-02-20T18:48:25.064Z,83.26
2019-02-20T18:50:54.780Z,83.21
2019-02-20T18:53:24.526Z,83.46
2019-02-20T18:55:56.071Z,83.94
2019-02-20T18:58:33.674Z,83.95
2019-02-20T19:00:57.451Z,83.98
2019-02-20T19:03:27.329Z,83.93
2019-02-20T19:05:57.372Z,83.96
2019-02-20T19:08:58.500Z,84.07
2019-02-20T19:11:55.059Z,84.09
2019-02-20T19:14:37.933Z,83.96
2019-02-20T19:17:49.361Z,84.13
2019-02-20T19:20:47.697Z,83.97
2019-02-20T19:24:01.380Z,84.22
2019-02-20T19:27:13.761Z,84.46
2019-02-20T19:30:36.052Z,84.80
2019-02-20T19:33:23.875Z,84.51
2019-02-20T19:36:29.266Z,84.61
2019-02-20T19:39:16.227Z,83.33
2019-02-20T19:42:19.005Z,79.28
2019-02-20T19:45:30.727Z,77.66
2019-02-20T19:48:29.222Z,77.23
2019-02-20T19:51:35.556Z,77.47
2019-02-20T19:54:36.290Z,78.22
2019-02-20T19:57:40.053Z,78.69
2019-02-20T20:00:40.858Z,82.83
2019-02-20T20:03:50.199Z,83.81
2019-02-20T20:06:32.399Z,82.03
2019-02-20T20:09:29.209Z,79.79
2019-02-20T20:12:31.229Z,77.38
2019-02-20T20:15:41.840Z,75.29
2019-02-20T20:18:36.267Z,73.05
2019-02-20T20:21:31.740Z,72.79
2019-02-20T20:24:31.826Z,73.28
2019-02-20T20:27:42.070Z,73.65
2019-02-20T20:31:12.273Z,73.30
2019-02-20T20:34:21.517Z,71.35
2019-02-20T20:37:14.591Z,71.42
2019-02-20T20:40:27.775Z,70.44
2019-02-20T20:43:47.277Z,69.46
2019-02-20T20:46:51.353Z,69.46
2019-02-20T20:50:01.325Z,69.70
2019-02-20T20:52:45.057Z,71.06
2019-02-20T20:56:02.548Z,71.03
2019-02-20T20:58:54.319Z,70.87
2019-02-20T21:01:47.321Z,71.89
2019-02-20T21:04:46.844Z,73.94
2019-02-20T21:07:52.350Z,74.08
2019-02-20T21:11:01.890Z,74.95
2019-02-20T21:14:15.668Z,75.72
2019-02-20T21:17:18.790Z,74.47
2019-02-20T21:20:27.614Z,72.65
2019-02-20T21:23:26.534Z,72.10
2019-02-20T21:26:40.585Z,71.86
2019-02-20T21:29:53.943Z,71.86
2019-02-20T21:33:09.354Z,71.74
2019-02-20T21:36:08.374Z,69.90
2019-02-20T21:39:10.812Z,68.89
2019-02-20T21:41:46.389Z,67.63
2019-02-20T21:44:37.839Z,67.25
2019-02-20T21:47:17.512Z,68.02
2019-02-20T21:50:08.171Z,67.15
2019-02-20T21:53:30.679Z,65.66
2019-02-20T21:56:26.003Z,65.60
2019-02-20T21:59:26.225Z,68.07
2019-02-20T22:02:30.066Z,67.17
2019-02-20T22:05:37.837Z,64.61
2019-02-20T22:08:39.847Z,64.37
2019-02-20T22:11:30.605Z,63.44
2019-02-20T22:14:42.891Z,62.37
2019-02-20T22:17:39.654Z,62.42
2019-02-20T22:20:49.771Z,61.99
2019-02-20T22:24:04.896Z,62.91
2019-02-20T22:27:06.296Z,61.67
2019-02-20T22:30:12.525Z,61.23
2019-02-20T22:33:37.995Z,60.70
2019-02-20T22:36:50.467Z,60.38
2019-02-20T22:39:54.827Z,59.97
2019-02-20T22:43:05.458Z,60.65
2019-02-20T22:45:55.709Z,60.08
2019-02-20T22:48:48.505Z,59.18
2019-02-20T22:51:40.980Z,58.89
2019-02-20T22:54:39.334Z,59.32
2019-02-20T22:57:39.483Z,59.37
2019-02-20T23:01:21.141Z,60.29
2019-02-20T23:04:05.468Z,60.00
2019-02-20T23:07:20.482Z,60.74
2019-02-20T23:10:27.329Z,60.48
2019-02-20T23:13:15.716Z,61.14
2019-02-20T23:15:45.777Z,61.01
2019-02-20T23:18:15.572Z,60.27
2019-02-20T23:20:45.353Z,58.71
2019-02-20T23:23:15.063Z,58.12
2019-02-20T23:25:45.040Z,57.63
2019-02-20T23:28:14.809Z,59.90
2019-02-20T23:30:45.210Z,60.33
2019-02-20T23:33:16.182Z,56.45
2019-02-20T23:35:46.298Z,54.89
2019-02-20T23:38:15.986Z,54.73
2019-02-20T23:40:45.849Z,54.20
2019-02-20T23:43:15.613Z,54.75
2019-02-20T23:45:45.329Z,54.60
2019-02-20T23:48:15.086Z,54.13
2019-02-20T23:50:44.888Z,54.93
2019-02-20T23:53:14.780Z,55.60
2019-02-20T23:55:44.743Z,56.03
2019-02-20T23:58:14.515Z,56.33
